sensor_id;sensor_type;location;lat;lon;timestamp;P1;durP1;ratioP1;P2;durP2;ratioP2
13660;SDS011;6903;49.480;11.102;2022-12-18T00:00:29;40.33;;;21.83;;
13660;SDS011;6903;49.480;11.102;2022-12-18T00:02:55;43.23;;;22.63;;
13660;SDS011;6903;49.480;11.102;2022-12-18T00:05:20;40.67;;;21.00;;
13660;SDS011;6903;49.480;11.102;2022-12-18T00:07:45;38.40;;;19.90;;
13660;SDS011;6903;49.480;11.102;2022-12-18T00:10:10;36.60;;;20.77;;
13660;SDS011;6903;49.480;11.102;2022-12-18T00:12:35;39.77;;;21.57;;
13660;SDS011;6903;49.480;11.102;2022-12-18T00:15:01;43.30;;;22.73;;
13660;SDS011;6903;49.480;11.102;2022-12-18T00:17:26;36.13;;;19.30;;
13660;SDS011;6903;49.480;11.102;2022-12-18T00:19:51;42.10;;;21.13;;
13660;SDS011;6903;49.480;11.102;2022-12-18T00:22:16;37.70;;;20.77;;
13660;SDS011;6903;49.480;11.102;2022-12-18T00:24:41;38.00;;;19.87;;
13660;SDS011;6903;49.480;11.102;2022-12-18T00:27:07;43.27;;;21.70;;
13660;SDS011;6903;49.480;11.102;2022-12-18T00:29:32;41.23;;;20.60;;
13660;SDS011;6903;49.480;11.102;2022-12-18T00:31:57;39.90;;;19.60;;
13660;SDS011;6903;49.480;11.102;2022-12-18T00:34:22;35.47;;;19.80;;
13660;SDS011;6903;49.480;11.102;2022-12-18T00:36:47;37.50;;;19.73;;
13660;SDS011;6903;49.480;11.102;2022-12-18T00:39:13;38.17;;;18.90;;
13660;SDS011;6903;49.480;11.102;2022-12-18T00:41:38;39.77;;;20.57;;
13660;SDS011;6903;49.480;11.102;2022-12-18T00:44:22;38.93;;;20.70;;
13660;SDS011;6903;49.480;11.102;2022-12-18T00:46:47;38.70;;;20.80;;
13660;SDS011;6903;49.480;11.102;2022-12-18T00:49:13;38.97;;;20.07;;
13660;SDS011;6903;49.480;11.102;2022-12-18T00:51:39;48.37;;;24.30;;
13660;SDS011;6903;49.480;11.102;2022-12-18T00:54:05;43.20;;;20.93;;
13660;SDS011;6903;49.480;11.102;2022-12-18T00:56:30;32.47;;;18.33;;
13660;SDS011;6903;49.480;11.102;2022-12-18T00:58:56;37.40;;;20.27;;
13660;SDS011;6903;49.480;11.102;2022-12-18T01:01:21;35.50;;;18.70;;
13660;SDS011;6903;49.480;11.102;2022-12-18T01:03:46;34.57;;;18.17;;
13660;SDS011;6903;49.480;11.102;2022-12-18T01:06:12;37.13;;;18.83;;
13660;SDS011;6903;49.480;11.102;2022-12-18T01:08:38;34.80;;;19.00;;
13660;SDS011;6903;49.480;11.102;2022-12-18T01:11:09;30.83;;;15.13;;
13660;SDS011;6903;49.480;11.102;2022-12-18T01:13:35;33.00;;;17.97;;
13660;SDS011;6903;49.480;11.102;2022-12-18T01:16:00;33.00;;;17.30;;
13660;SDS011;6903;49.480;11.102;2022-12-18T01:18:25;25.90;;;15.33;;
13660;SDS011;6903;49.480;11.102;2022-12-18T01:20:50;31.23;;;17.17;;
13660;SDS011;6903;49.480;11.102;2022-12-18T01:23:15;26.83;;;15.67;;
13660;SDS011;6903;49.480;11.102;2022-12-18T01:25:41;32.20;;;16.23;;
13660;SDS011;6903;49.480;11.102;2022-12-18T01:28:06;31.33;;;16.30;;
13660;SDS011;6903;49.480;11.102;2022-12-18T01:30:31;32.40;;;16.53;;
13660;SDS011;6903;49.480;11.102;2022-12-18T01:32:56;28.20;;;15.50;;
13660;SDS011;6903;49.480;11.102;2022-12-18T01:35:22;31.63;;;16.03;;
13660;SDS011;6903;49.480;11.102;2022-12-18T01:37:47;33.30;;;17.30;;
13660;SDS011;6903;49.480;11.102;2022-12-18T01:40:12;32.93;;;16.73;;
13660;SDS011;6903;49.480;11.102;2022-12-18T01:42:38;32.00;;;17.17;;
13660;SDS011;6903;49.480;11.102;2022-12-18T01:47:29;38.47;;;17.63;;
13660;SDS011;6903;49.480;11.102;2022-12-18T01:49:55;29.30;;;15.60;;
13660;SDS011;6903;49.480;11.102;2022-12-18T01:52:22;29.10;;;15.20;;
13660;SDS011;6903;49.480;11.102;2022-12-18T01:54:49;28.10;;;15.80;;
13660;SDS011;6903;49.480;11.102;2022-12-18T01:57:15;33.93;;;17.13;;
13660;SDS011;6903;49.480;11.102;2022-12-18T01:59:41;29.90;;;15.53;;
13660;SDS011;6903;49.480;11.102;2022-12-18T02:02:07;28.43;;;15.63;;
13660;SDS011;6903;49.480;11.102;2022-12-18T02:04:32;31.93;;;16.40;;
13660;SDS011;6903;49.480;11.102;2022-12-18T02:07:01;31.03;;;15.40;;
13660;SDS011;6903;49.480;11.102;2022-12-18T02:09:29;28.20;;;15.40;;
13660;SDS011;6903;49.480;11.102;2022-12-18T02:14:38;30.63;;;15.83;;
13660;SDS011;6903;49.480;11.102;2022-12-18T02:17:14;28.83;;;15.43;;
13660;SDS011;6903;49.480;11.102;2022-12-18T02:27:44;31.33;;;16.70;;
13660;SDS011;6903;49.480;11.102;2022-12-18T02:30:10;27.83;;;15.53;;
13660;SDS011;6903;49.480;11.102;2022-12-18T02:32:39;28.17;;;13.77;;
13660;SDS011;6903;49.480;11.102;2022-12-18T02:35:06;27.87;;;15.23;;
13660;SDS011;6903;49.480;11.102;2022-12-18T02:37:32;29.33;;;16.00;;
13660;SDS011;6903;49.480;11.102;2022-12-18T02:39:59;29.23;;;15.67;;
13660;SDS011;6903;49.480;11.102;2022-12-18T02:42:24;29.70;;;15.03;;
13660;SDS011;6903;49.480;11.102;2022-12-18T02:44:51;26.73;;;13.27;;
13660;SDS011;6903;49.480;11.102;2022-12-18T02:47:18;27.17;;;15.20;;
13660;SDS011;6903;49.480;11.102;2022-12-18T02:49:47;25.63;;;14.90;;
13660;SDS011;6903;49.480;11.102;2022-12-18T02:52:19;28.50;;;16.00;;
13660;SDS011;6903;49.480;11.102;2022-12-18T02:54:55;30.70;;;16.00;;
13660;SDS011;6903;49.480;11.102;2022-12-18T02:57:33;29.07;;;15.60;;
13660;SDS011;6903;49.480;11.102;2022-12-18T03:02:38;30.40;;;17.03;;
13660;SDS011;6903;49.480;11.102;2022-12-18T03:05:15;30.07;;;15.50;;
13660;SDS011;6903;49.480;11.102;2022-12-18T03:07:46;30.07;;;17.33;;
13660;SDS011;6903;49.480;11.102;2022-12-18T03:10:14;31.37;;;15.07;;
13660;SDS011;6903;49.480;11.102;2022-12-18T03:12:49;31.57;;;17.23;;
13660;SDS011;6903;49.480;11.102;2022-12-18T03:15:17;28.90;;;15.20;;
13660;SDS011;6903;49.480;11.102;2022-12-18T03:17:45;29.30;;;15.77;;
13660;SDS011;6903;49.480;11.102;2022-12-18T03:20:15;33.73;;;16.90;;
13660;SDS011;6903;49.480;11.102;2022-12-18T03:22:42;30.10;;;15.97;;
13660;SDS011;6903;49.480;11.102;2022-12-18T03:25:09;25.40;;;13.50;;
13660;SDS011;6903;49.480;11.102;2022-12-18T03:27:36;33.03;;;18.17;;
13660;SDS011;6903;49.480;11.102;2022-12-18T03:30:04;34.00;;;16.17;;
13660;SDS011;6903;49.480;11.102;2022-12-18T03:32:38;37.43;;;18.13;;
13660;SDS011;6903;49.480;11.102;2022-12-18T03:35:05;26.97;;;13.80;;
13660;SDS011;6903;49.480;11.102;2022-12-18T03:37:30;31.40;;;16.40;;
13660;SDS011;6903;49.480;11.102;2022-12-18T03:39:56;35.30;;;16.87;;
13660;SDS011;6903;49.480;11.102;2022-12-18T03:45:08;31.77;;;16.50;;
13660;SDS011;6903;49.480;11.102;2022-12-18T03:50:13;31.33;;;14.93;;
13660;SDS011;6903;49.480;11.102;2022-12-18T03:52:48;30.53;;;16.03;;
13660;SDS011;6903;49.480;11.102;2022-12-18T03:55:14;37.20;;;16.23;;
13660;SDS011;6903;49.480;11.102;2022-12-18T03:57:40;34.40;;;17.13;;
13660;SDS011;6903;49.480;11.102;2022-12-18T04:00:11;34.33;;;15.57;;
13660;SDS011;6903;49.480;11.102;2022-12-18T04:02:37;34.70;;;16.53;;
13660;SDS011;6903;49.480;11.102;2022-12-18T04:05:05;33.67;;;17.17;;
13660;SDS011;6903;49.480;11.102;2022-12-18T04:07:32;34.40;;;15.03;;
13660;SDS011;6903;49.480;11.102;2022-12-18T04:09:58;37.83;;;17.60;;
13660;SDS011;6903;49.480;11.102;2022-12-18T04:12:24;25.37;;;12.63;;
13660;SDS011;6903;49.480;11.102;2022-12-18T04:14:50;38.23;;;17.07;;
13660;SDS011;6903;49.480;11.102;2022-12-18T04:17:15;33.00;;;15.63;;
13660;SDS011;6903;49.480;11.102;2022-12-18T04:19:41;32.30;;;16.07;;
13660;SDS011;6903;49.480;11.102;2022-12-18T04:22:06;31.33;;;15.60;;
13660;SDS011;6903;49.480;11.102;2022-12-18T04:24:31;36.17;;;16.87;;
13660;SDS011;6903;49.480;11.102;2022-12-18T04:26:56;35.83;;;16.23;;
13660;SDS011;6903;49.480;11.102;2022-12-18T04:29:21;33.13;;;15.87;;
13660;SDS011;6903;49.480;11.102;2022-12-18T04:31:46;34.87;;;15.70;;
13660;SDS011;6903;49.480;11.102;2022-12-18T04:34:12;31.20;;;14.77;;
13660;SDS011;6903;49.480;11.102;2022-12-18T04:36:37;35.23;;;15.60;;
13660;SDS011;6903;49.480;11.102;2022-12-18T04:39:02;35.03;;;14.60;;
13660;SDS011;6903;49.480;11.102;2022-12-18T04:41:27;33.27;;;16.57;;
13660;SDS011;6903;49.480;11.102;2022-12-18T04:43:52;35.03;;;15.17;;
13660;SDS011;6903;49.480;11.102;2022-12-18T04:46:18;29.30;;;12.97;;
13660;SDS011;6903;49.480;11.102;2022-12-18T04:48:44;31.80;;;12.77;;
13660;SDS011;6903;49.480;11.102;2022-12-18T04:51:10;33.63;;;13.60;;
13660;SDS011;6903;49.480;11.102;2022-12-18T04:53:35;36.37;;;16.07;;
13660;SDS011;6903;49.480;11.102;2022-12-18T04:56:07;38.97;;;16.43;;
13660;SDS011;6903;49.480;11.102;2022-12-18T04:58:32;38.57;;;18.10;;
13660;SDS011;6903;49.480;11.102;2022-12-18T05:00:58;31.23;;;14.57;;
13660;SDS011;6903;49.480;11.102;2022-12-18T05:03:23;35.80;;;15.30;;
13660;SDS011;6903;49.480;11.102;2022-12-18T05:05:51;36.60;;;15.43;;
13660;SDS011;6903;49.480;11.102;2022-12-18T05:08:16;32.53;;;15.63;;
13660;SDS011;6903;49.480;11.102;2022-12-18T05:10:42;36.53;;;16.30;;
13660;SDS011;6903;49.480;11.102;2022-12-18T05:13:07;33.60;;;13.53;;
13660;SDS011;6903;49.480;11.102;2022-12-18T05:15:32;29.97;;;13.03;;
13660;SDS011;6903;49.480;11.102;2022-12-18T05:17:58;35.83;;;16.13;;
13660;SDS011;6903;49.480;11.102;2022-12-18T05:20:23;37.60;;;16.10;;
13660;SDS011;6903;49.480;11.102;2022-12-18T05:22:48;36.70;;;15.00;;
13660;SDS011;6903;49.480;11.102;2022-12-18T05:25:14;37.73;;;15.80;;
13660;SDS011;6903;49.480;11.102;2022-12-18T05:27:40;38.57;;;15.83;;
13660;SDS011;6903;49.480;11.102;2022-12-18T05:30:05;41.03;;;17.37;;
13660;SDS011;6903;49.480;11.102;2022-12-18T05:32:30;38.97;;;14.97;;
13660;SDS011;6903;49.480;11.102;2022-12-18T05:34:55;40.50;;;16.20;;
13660;SDS011;6903;49.480;11.102;2022-12-18T05:37:22;33.73;;;15.90;;
13660;SDS011;6903;49.480;11.102;2022-12-18T05:39:47;28.03;;;12.27;;
13660;SDS011;6903;49.480;11.102;2022-12-18T05:42:12;36.17;;;17.10;;
13660;SDS011;6903;49.480;11.102;2022-12-18T05:44:38;34.00;;;13.63;;
13660;SDS011;6903;49.480;11.102;2022-12-18T05:47:03;35.20;;;14.13;;
13660;SDS011;6903;49.480;11.102;2022-12-18T05:49:29;24.50;;;8.87;;
13660;SDS011;6903;49.480;11.102;2022-12-18T05:51:54;25.17;;;12.47;;
13660;SDS011;6903;49.480;11.102;2022-12-18T05:54:19;30.50;;;13.60;;
13660;SDS011;6903;49.480;11.102;2022-12-18T05:56:44;32.80;;;15.03;;
13660;SDS011;6903;49.480;11.102;2022-12-18T05:59:09;36.93;;;16.30;;
13660;SDS011;6903;49.480;11.102;2022-12-18T06:01:35;35.70;;;15.30;;
13660;SDS011;6903;49.480;11.102;2022-12-18T06:04:00;36.27;;;15.27;;
13660;SDS011;6903;49.480;11.102;2022-12-18T06:06:26;22.43;;;11.67;;
13660;SDS011;6903;49.480;11.102;2022-12-18T06:08:52;32.07;;;14.97;;
13660;SDS011;6903;49.480;11.102;2022-12-18T06:11:18;33.57;;;15.03;;
13660;SDS011;6903;49.480;11.102;2022-12-18T06:13:44;30.80;;;13.40;;
13660;SDS011;6903;49.480;11.102;2022-12-18T06:16:09;30.77;;;13.90;;
13660;SDS011;6903;49.480;11.102;2022-12-18T06:18:35;28.40;;;13.67;;
13660;SDS011;6903;49.480;11.102;2022-12-18T06:21:00;29.63;;;10.83;;
13660;SDS011;6903;49.480;11.102;2022-12-18T06:23:25;34.30;;;14.33;;
13660;SDS011;6903;49.480;11.102;2022-12-18T06:25:51;28.97;;;13.40;;
13660;SDS011;6903;49.480;11.102;2022-12-18T06:28:16;40.07;;;16.30;;
13660;SDS011;6903;49.480;11.102;2022-12-18T06:30:45;35.40;;;16.27;;
13660;SDS011;6903;49.480;11.102;2022-12-18T06:33:11;19.17;;;8.53;;
13660;SDS011;6903;49.480;11.102;2022-12-18T06:35:36;29.10;;;13.13;;
13660;SDS011;6903;49.480;11.102;2022-12-18T06:38:02;38.50;;;14.57;;
13660;SDS011;6903;49.480;11.102;2022-12-18T06:40:27;23.67;;;10.73;;
13660;SDS011;6903;49.480;11.102;2022-12-18T06:42:52;34.33;;;15.23;;
13660;SDS011;6903;49.480;11.102;2022-12-18T06:45:17;29.90;;;12.50;;
13660;SDS011;6903;49.480;11.102;2022-12-18T06:47:43;34.67;;;14.40;;
13660;SDS011;6903;49.480;11.102;2022-12-18T06:50:08;38.93;;;17.13;;
13660;SDS011;6903;49.480;11.102;2022-12-18T06:52:33;28.30;;;13.33;;
13660;SDS011;6903;49.480;11.102;2022-12-18T06:54:59;32.67;;;15.50;;
13660;SDS011;6903;49.480;11.102;2022-12-18T06:57:24;28.53;;;12.03;;
13660;SDS011;6903;49.480;11.102;2022-12-18T06:59:49;39.93;;;15.13;;
13660;SDS011;6903;49.480;11.102;2022-12-18T07:02:14;37.17;;;15.03;;
13660;SDS011;6903;49.480;11.102;2022-12-18T07:04:40;23.47;;;10.20;;
13660;SDS011;6903;49.480;11.102;2022-12-18T07:07:05;43.30;;;17.57;;
13660;SDS011;6903;49.480;11.102;2022-12-18T07:09:30;32.83;;;14.30;;
13660;SDS011;6903;49.480;11.102;2022-12-18T07:11:55;38.73;;;15.87;;
13660;SDS011;6903;49.480;11.102;2022-12-18T07:14:20;39.67;;;15.80;;
13660;SDS011;6903;49.480;11.102;2022-12-18T07:16:45;23.33;;;11.03;;
13660;SDS011;6903;49.480;11.102;2022-12-18T07:19:11;34.97;;;13.90;;
13660;SDS011;6903;49.480;11.102;2022-12-18T07:21:36;35.00;;;14.83;;
13660;SDS011;6903;49.480;11.102;2022-12-18T07:24:01;23.17;;;10.67;;
13660;SDS011;6903;49.480;11.102;2022-12-18T07:26:26;32.93;;;13.50;;
13660;SDS011;6903;49.480;11.102;2022-12-18T07:28:54;40.40;;;15.13;;
13660;SDS011;6903;49.480;11.102;2022-12-18T07:31:20;35.90;;;16.27;;
13660;SDS011;6903;49.480;11.102;2022-12-18T07:33:45;40.97;;;15.53;;
13660;SDS011;6903;49.480;11.102;2022-12-18T07:36:11;33.60;;;15.10;;
13660;SDS011;6903;49.480;11.102;2022-12-18T07:38:36;33.67;;;15.90;;
13660;SDS011;6903;49.480;11.102;2022-12-18T07:41:02;39.40;;;15.20;;
13660;SDS011;6903;49.480;11.102;2022-12-18T07:43:28;36.03;;;15.27;;
13660;SDS011;6903;49.480;11.102;2022-12-18T07:45:53;38.23;;;17.13;;
13660;SDS011;6903;49.480;11.102;2022-12-18T07:48:19;46.87;;;18.63;;
13660;SDS011;6903;49.480;11.102;2022-12-18T07:50:44;37.75;;;17.25;;
13660;SDS011;6903;49.480;11.102;2022-12-18T07:53:09;28.97;;;12.30;;
13660;SDS011;6903;49.480;11.102;2022-12-18T07:55:34;35.77;;;15.17;;
13660;SDS011;6903;49.480;11.102;2022-12-18T07:58:03;44.10;;;16.77;;
13660;SDS011;6903;49.480;11.102;2022-12-18T08:00:28;39.57;;;17.83;;
13660;SDS011;6903;49.480;11.102;2022-12-18T08:02:54;33.20;;;15.00;;
13660;SDS011;6903;49.480;11.102;2022-12-18T08:05:19;38.33;;;16.67;;
13660;SDS011;6903;49.480;11.102;2022-12-18T08:07:45;43.97;;;17.83;;
13660;SDS011;6903;49.480;11.102;2022-12-18T08:10:10;37.80;;;17.70;;
13660;SDS011;6903;49.480;11.102;2022-12-18T08:12:36;32.20;;;14.43;;
13660;SDS011;6903;49.480;11.102;2022-12-18T08:15:01;32.53;;;15.23;;
13660;SDS011;6903;49.480;11.102;2022-12-18T08:17:26;41.50;;;18.70;;
13660;SDS011;6903;49.480;11.102;2022-12-18T08:19:51;34.53;;;16.43;;
13660;SDS011;6903;49.480;11.102;2022-12-18T08:22:17;36.00;;;16.23;;
13660;SDS011;6903;49.480;11.102;2022-12-18T08:24:42;40.27;;;16.80;;
13660;SDS011;6903;49.480;11.102;2022-12-18T08:27:07;35.93;;;15.57;;
13660;SDS011;6903;49.480;11.102;2022-12-18T08:29:32;35.97;;;17.40;;
13660;SDS011;6903;49.480;11.102;2022-12-18T08:31:58;37.37;;;16.50;;
13660;SDS011;6903;49.480;11.102;2022-12-18T08:34:23;36.00;;;16.40;;
13660;SDS011;6903;49.480;11.102;2022-12-18T08:36:49;30.00;;;14.57;;
13660;SDS011;6903;49.480;11.102;2022-12-18T08:39:14;34.33;;;15.77;;
13660;SDS011;6903;49.480;11.102;2022-12-18T08:41:39;41.60;;;16.93;;
13660;SDS011;6903;49.480;11.102;2022-12-18T08:44:04;34.00;;;15.70;;
13660;SDS011;6903;49.480;11.102;2022-12-18T08:46:48;39.77;;;17.83;;
13660;SDS011;6903;49.480;11.102;2022-12-18T08:49:13;40.13;;;17.73;;
13660;SDS011;6903;49.480;11.102;2022-12-18T08:51:38;39.33;;;17.37;;
13660;SDS011;6903;49.480;11.102;2022-12-18T08:54:04;37.53;;;17.30;;
13660;SDS011;6903;49.480;11.102;2022-12-18T08:56:30;44.50;;;19.73;;
13660;SDS011;6903;49.480;11.102;2022-12-18T08:58:55;29.13;;;15.13;;
13660;SDS011;6903;49.480;11.102;2022-12-18T09:01:21;41.33;;;18.40;;
13660;SDS011;6903;49.480;11.102;2022-12-18T09:03:46;35.00;;;17.57;;
13660;SDS011;6903;49.480;11.102;2022-12-18T09:06:16;41.70;;;17.67;;
13660;SDS011;6903;49.480;11.102;2022-12-18T09:08:42;35.63;;;17.30;;
13660;SDS011;6903;49.480;11.102;2022-12-18T09:11:15;36.30;;;15.87;;
13660;SDS011;6903;49.480;11.102;2022-12-18T09:13:43;35.07;;;17.60;;
13660;SDS011;6903;49.480;11.102;2022-12-18T09:16:08;34.23;;;17.63;;
13660;SDS011;6903;49.480;11.102;2022-12-18T09:18:33;37.53;;;17.73;;
13660;SDS011;6903;49.480;11.102;2022-12-18T09:20:59;38.40;;;16.93;;
13660;SDS011;6903;49.480;11.102;2022-12-18T09:23:24;37.87;;;16.40;;
13660;SDS011;6903;49.480;11.102;2022-12-18T09:25:49;33.27;;;15.43;;
13660;SDS011;6903;49.480;11.102;2022-12-18T09:28:15;40.20;;;16.73;;
13660;SDS011;6903;49.480;11.102;2022-12-18T09:30:42;34.13;;;16.70;;
13660;SDS011;6903;49.480;11.102;2022-12-18T09:33:07;38.37;;;17.63;;
13660;SDS011;6903;49.480;11.102;2022-12-18T09:35:35;36.47;;;17.03;;
13660;SDS011;6903;49.480;11.102;2022-12-18T09:38:00;37.77;;;16.63;;
13660;SDS011;6903;49.480;11.102;2022-12-18T09:40:26;37.10;;;18.07;;
13660;SDS011;6903;49.480;11.102;2022-12-18T09:43:00;40.60;;;17.80;;
13660;SDS011;6903;49.480;11.102;2022-12-18T09:45:27;39.67;;;17.63;;
13660;SDS011;6903;49.480;11.102;2022-12-18T09:47:53;32.90;;;15.60;;
13660;SDS011;6903;49.480;11.102;2022-12-18T09:52:45;37.13;;;16.90;;
13660;SDS011;6903;49.480;11.102;2022-12-18T09:57:57;40.00;;;16.23;;
13660;SDS011;6903;49.480;11.102;2022-12-18T10:00:26;35.43;;;16.10;;
13660;SDS011;6903;49.480;11.102;2022-12-18T10:02:51;30.17;;;14.87;;
13660;SDS011;6903;49.480;11.102;2022-12-18T10:05:30;34.47;;;16.60;;
13660;SDS011;6903;49.480;11.102;2022-12-18T10:08:00;30.90;;;15.50;;
13660;SDS011;6903;49.480;11.102;2022-12-18T10:20:45;26.33;;;12.33;;
13660;SDS011;6903;49.480;11.102;2022-12-18T10:25:48;33.50;;;15.40;;
13660;SDS011;6903;49.480;11.102;2022-12-18T10:28:15;28.37;;;15.00;;
13660;SDS011;6903;49.480;11.102;2022-12-18T10:30:42;29.33;;;15.60;;
13660;SDS011;6903;49.480;11.102;2022-12-18T10:33:15;25.43;;;12.13;;
13660;SDS011;6903;49.480;11.102;2022-12-18T10:35:41;29.03;;;14.87;;
13660;SDS011;6903;49.480;11.102;2022-12-18T10:40:58;26.10;;;11.73;;
13660;SDS011;6903;49.480;11.102;2022-12-18T10:43:37;23.37;;;13.07;;
13660;SDS011;6903;49.480;11.102;2022-12-18T10:48:36;25.80;;;13.67;;
13660;SDS011;6903;49.480;11.102;2022-12-18T10:51:01;21.37;;;11.03;;
13660;SDS011;6903;49.480;11.102;2022-12-18T10:53:28;22.07;;;12.20;;
13660;SDS011;6903;49.480;11.102;2022-12-18T10:55:55;22.97;;;11.97;;
13660;SDS011;6903;49.480;11.102;2022-12-18T11:04:08;18.03;;;10.07;;
13660;SDS011;6903;49.480;11.102;2022-12-18T11:06:18;21.40;;;12.00;;
13660;SDS011;6903;49.480;11.102;2022-12-18T11:09:05;25.80;;;11.50;;
13660;SDS011;6903;49.480;11.102;2022-12-18T11:11:31;24.00;;;11.93;;
13660;SDS011;6903;49.480;11.102;2022-12-18T11:14:03;28.13;;;13.60;;
13660;SDS011;6903;49.480;11.102;2022-12-18T11:16:29;24.43;;;12.13;;
13660;SDS011;6903;49.480;11.102;2022-12-18T11:19:08;24.47;;;13.27;;
13660;SDS011;6903;49.480;11.102;2022-12-18T11:21:38;26.43;;;13.73;;
13660;SDS011;6903;49.480;11.102;2022-12-18T11:24:04;25.80;;;13.23;;
13660;SDS011;6903;49.480;11.102;2022-12-18T11:26:35;25.20;;;13.17;;
13660;SDS011;6903;49.480;11.102;2022-12-18T11:29:13;28.83;;;14.33;;
13660;SDS011;6903;49.480;11.102;2022-12-18T11:31:41;26.17;;;13.40;;
13660;SDS011;6903;49.480;11.102;2022-12-18T11:34:11;29.97;;;15.63;;
13660;SDS011;6903;49.480;11.102;2022-12-18T11:36:40;24.27;;;12.03;;
13660;SDS011;6903;49.480;11.102;2022-12-18T11:39:49;30.03;;;15.07;;
13660;SDS011;6903;49.480;11.102;2022-12-18T11:42:04;27.80;;;14.30;;
13660;SDS011;6903;49.480;11.102;2022-12-18T11:49:59;25.70;;;12.80;;
13660;SDS011;6903;49.480;11.102;2022-12-18T11:52:31;29.37;;;14.90;;
13660;SDS011;6903;49.480;11.102;2022-12-18T11:55:00;27.67;;;13.00;;
13660;SDS011;6903;49.480;11.102;2022-12-18T12:02:43;30.23;;;14.10;;
13660;SDS011;6903;49.480;11.102;2022-12-18T12:07:52;23.40;;;12.47;;
13660;SDS011;6903;49.480;11.102;2022-12-18T12:10:33;26.53;;;12.97;;
13660;SDS011;6903;49.480;11.102;2022-12-18T12:13:07;28.97;;;14.30;;
13660;SDS011;6903;49.480;11.102;2022-12-18T12:15:48;28.80;;;13.93;;
13660;SDS011;6903;49.480;11.102;2022-12-18T12:18:36;30.10;;;15.80;;
13660;SDS011;6903;49.480;11.102;2022-12-18T12:26:32;28.40;;;14.30;;
13660;SDS011;6903;49.480;11.102;2022-12-18T12:29:06;29.20;;;14.60;;
13660;SDS011;6903;49.480;11.102;2022-12-18T12:31:48;29.07;;;15.33;;
13660;SDS011;6903;49.480;11.102;2022-12-18T12:36:48;29.83;;;14.70;;
13660;SDS011;6903;49.480;11.102;2022-12-18T12:39:16;28.23;;;14.47;;
13660;SDS011;6903;49.480;11.102;2022-12-18T12:41:42;27.97;;;14.80;;
13660;SDS011;6903;49.480;11.102;2022-12-18T12:44:29;29.97;;;15.10;;
13660;SDS011;6903;49.480;11.102;2022-12-18T12:46:56;28.80;;;14.13;;
13660;SDS011;6903;49.480;11.102;2022-12-18T12:49:22;28.43;;;15.50;;
13660;SDS011;6903;49.480;11.102;2022-12-18T12:51:53;27.87;;;15.00;;
13660;SDS011;6903;49.480;11.102;2022-12-18T12:54:21;31.13;;;15.20;;
13660;SDS011;6903;49.480;11.102;2022-12-18T13:04:52;28.60;;;15.10;;
13660;SDS011;6903;49.480;11.102;2022-12-18T13:07:20;28.57;;;14.87;;
13660;SDS011;6903;49.480;11.102;2022-12-18T13:12:32;28.67;;;14.30;;
13660;SDS011;6903;49.480;11.102;2022-12-18T13:15:27;29.33;;;14.70;;
13660;SDS011;6903;49.480;11.102;2022-12-18T13:20:41;30.30;;;15.10;;
13660;SDS011;6903;49.480;11.102;2022-12-18T13:25:47;24.80;;;13.20;;
13660;SDS011;6903;49.480;11.102;2022-12-18T13:28:13;28.37;;;13.93;;
13660;SDS011;6903;49.480;11.102;2022-12-18T13:30:46;28.10;;;14.30;;
13660;SDS011;6903;49.480;11.102;2022-12-18T13:35:51;24.57;;;13.00;;
13660;SDS011;6903;49.480;11.102;2022-12-18T13:40:56;26.47;;;13.73;;
13660;SDS011;6903;49.480;11.102;2022-12-18T13:45:48;24.75;;;13.68;;
13660;SDS011;6903;49.480;11.102;2022-12-18T13:48:24;24.43;;;13.77;;
13660;SDS011;6903;49.480;11.102;2022-12-18T13:50:57;24.67;;;13.57;;
13660;SDS011;6903;49.480;11.102;2022-12-18T13:53:30;24.73;;;13.07;;
13660;SDS011;6903;49.480;11.102;2022-12-18T13:55:57;27.70;;;13.77;;
13660;SDS011;6903;49.480;11.102;2022-12-18T13:58:23;23.00;;;12.03;;
13660;SDS011;6903;49.480;11.102;2022-12-18T14:00:48;21.53;;;11.90;;
13660;SDS011;6903;49.480;11.102;2022-12-18T14:03:24;25.13;;;13.27;;
13660;SDS011;6903;49.480;11.102;2022-12-18T14:06:05;17.13;;;9.13;;
13660;SDS011;6903;49.480;11.102;2022-12-18T14:08:38;23.13;;;13.27;;
13660;SDS011;6903;49.480;11.102;2022-12-18T14:11:04;23.03;;;12.43;;
13660;SDS011;6903;49.480;11.102;2022-12-18T14:13:32;22.70;;;11.70;;
13660;SDS011;6903;49.480;11.102;2022-12-18T14:16:00;25.83;;;13.47;;
13660;SDS011;6903;49.480;11.102;2022-12-18T14:18:28;22.87;;;13.10;;
13660;SDS011;6903;49.480;11.102;2022-12-18T14:20:54;25.37;;;13.53;;
13660;SDS011;6903;49.480;11.102;2022-12-18T14:23:28;23.77;;;13.30;;
13660;SDS011;6903;49.480;11.102;2022-12-18T14:25:53;22.37;;;12.93;;
13660;SDS011;6903;49.480;11.102;2022-12-18T14:28:19;22.83;;;12.30;;
13660;SDS011;6903;49.480;11.102;2022-12-18T14:30:46;23.33;;;11.73;;
13660;SDS011;6903;49.480;11.102;2022-12-18T14:33:13;23.20;;;12.73;;
13660;SDS011;6903;49.480;11.102;2022-12-18T14:36:01;25.47;;;12.50;;
13660;SDS011;6903;49.480;11.102;2022-12-18T14:38:32;22.90;;;10.93;;
13660;SDS011;6903;49.480;11.102;2022-12-18T14:40:59;21.87;;;12.33;;
13660;SDS011;6903;49.480;11.102;2022-12-18T14:43:25;22.10;;;11.73;;
13660;SDS011;6903;49.480;11.102;2022-12-18T14:45:50;22.73;;;12.40;;
13660;SDS011;6903;49.480;11.102;2022-12-18T14:48:25;24.73;;;13.20;;
13660;SDS011;6903;49.480;11.102;2022-12-18T14:50:59;20.53;;;12.23;;
13660;SDS011;6903;49.480;11.102;2022-12-18T14:55:59;24.83;;;14.33;;
13660;SDS011;6903;49.480;11.102;2022-12-18T14:58:24;22.17;;;13.10;;
13660;SDS011;6903;49.480;11.102;2022-12-18T15:00:50;20.67;;;12.50;;
13660;SDS011;6903;49.480;11.102;2022-12-18T15:03:17;26.03;;;12.60;;
13660;SDS011;6903;49.480;11.102;2022-12-18T15:05:43;29.47;;;14.33;;
13660;SDS011;6903;49.480;11.102;2022-12-18T15:08:28;26.40;;;13.13;;
13660;SDS011;6903;49.480;11.102;2022-12-18T15:10:54;26.63;;;14.30;;
13660;SDS011;6903;49.480;11.102;2022-12-18T15:13:22;26.33;;;12.97;;
13660;SDS011;6903;49.480;11.102;2022-12-18T15:15:48;24.97;;;13.83;;
13660;SDS011;6903;49.480;11.102;2022-12-18T15:21:15;24.20;;;13.53;;
13660;SDS011;6903;49.480;11.102;2022-12-18T15:26:10;23.33;;;12.70;;
13660;SDS011;6903;49.480;11.102;2022-12-18T15:33:43;27.55;;;12.95;;
13660;SDS011;6903;49.480;11.102;2022-12-18T15:36:12;27.53;;;14.90;;
13660;SDS011;6903;49.480;11.102;2022-12-18T15:38:37;27.40;;;14.07;;
13660;SDS011;6903;49.480;11.102;2022-12-18T15:41:02;26.67;;;13.70;;
13660;SDS011;6903;49.480;11.102;2022-12-18T15:43:28;29.97;;;14.63;;
13660;SDS011;6903;49.480;11.102;2022-12-18T15:46:12;25.43;;;14.67;;
13660;SDS011;6903;49.480;11.102;2022-12-18T15:48:39;28.43;;;15.17;;
13660;SDS011;6903;49.480;11.102;2022-12-18T15:51:05;28.63;;;13.67;;
13660;SDS011;6903;49.480;11.102;2022-12-18T15:53:31;28.80;;;14.30;;
13660;SDS011;6903;49.480;11.102;2022-12-18T15:55:57;31.60;;;15.43;;
13660;SDS011;6903;49.480;11.102;2022-12-18T15:58:41;23.53;;;12.17;;
13660;SDS011;6903;49.480;11.102;2022-12-18T16:01:07;31.77;;;15.30;;
13660;SDS011;6903;49.480;11.102;2022-12-18T16:03:33;25.77;;;13.53;;
13660;SDS011;6903;49.480;11.102;2022-12-18T16:05:59;26.00;;;15.43;;
13660;SDS011;6903;49.480;11.102;2022-12-18T16:08:26;28.63;;;15.20;;
13660;SDS011;6903;49.480;11.102;2022-12-18T16:10:52;28.63;;;16.07;;